Cherokee Observed Data For Previous 48 Hours

Caption
Day and Hour Reservoir Elevation (behind dam)* Tailwater Elevation (below dam)* Average Hourly Discharge*
7/14/2018 2 AM EDT 1,069.47 921.06 0
7/14/2018 3 AM EDT 1,069.47 921.06 0
7/14/2018 4 AM EDT 1,069.47 921.06 0
7/14/2018 5 AM EDT 1,069.46 921.73 113
7/14/2018 6 AM EDT 1,069.47 921.55 2,048
7/14/2018 7 AM EDT 1,069.46 921.07 0
7/14/2018 8 AM EDT 1,069.47 921.07 0
7/14/2018 9 AM EDT 1,069.47 921.06 0
7/14/2018 10 AM EDT 1,069.48 921.07 0
7/14/2018 11 AM EDT 1,069.48 921.70 108
7/14/2018 12 PM EDT 1,069.48 921.56 2,073
7/14/2018 1 PM EDT 1,069.49 921.06 0
7/14/2018 2 PM EDT 1,069.50 921.06 0
7/14/2018 3 PM EDT 1,069.50 921.06 0
7/14/2018 4 PM EDT 1,069.50 922.28 285
7/14/2018 5 PM EDT 1,069.48 926.02 7,931
7/14/2018 6 PM EDT 1,069.47 926.12 8,015
7/14/2018 7 PM EDT 1,069.47 926.10 8,016
7/14/2018 8 PM EDT 1,069.47 921.25 163
7/14/2018 9 PM EDT 1,069.46 921.06 0
7/14/2018 10 PM EDT 1,069.45 921.06 0
7/14/2018 11 PM EDT 1,069.46 921.06 0
7/15/2018 12 AM EDT 1,069.47 921.72 108
7/15/2018 1 AM EDT 1,069.47 921.55 2,058
7/15/2018 2 AM EDT 1,069.47 921.06 0
7/15/2018 3 AM EDT 1,069.49 921.06 0
7/15/2018 4 AM EDT 1,069.48 921.06 0
7/15/2018 5 AM EDT 1,069.49 921.06 0
7/15/2018 6 AM EDT 1,069.49 921.68 104
7/15/2018 7 AM EDT 1,069.49 921.54 2,047
7/15/2018 8 AM EDT 1,069.50 921.06 0
7/15/2018 9 AM EDT 1,069.50 921.06 0
7/15/2018 10 AM EDT 1,069.50 921.06 0
7/15/2018 11 AM EDT 1,069.51 921.06 0
7/15/2018 12 PM EDT 1,069.51 921.70 111
7/15/2018 1 PM EDT 1,069.52 921.55 2,052
7/15/2018 2 PM EDT 1,069.52 921.06 0
7/15/2018 3 PM EDT 1,069.54 921.06 0
7/15/2018 4 PM EDT 1,069.53 921.75 117
7/15/2018 5 PM EDT 1,069.52 923.87 3,608
7/15/2018 6 PM EDT 1,069.52 923.90 3,617
7/15/2018 7 PM EDT 1,069.51 923.93 3,622
7/15/2018 8 PM EDT 1,069.51 923.92 3,621
7/15/2018 9 PM EDT 1,069.50 923.92 3,623
7/15/2018 10 PM EDT 1,069.49 923.93 3,627
7/15/2018 11 PM EDT 1,069.50 921.12 63
7/16/2018 12 AM EDT 1,069.49 921.06 0
7/16/2018 1 AM EDT 1,069.50 921.06 0

Elevations are in feet above sea level. Discharges are in cubic feet per second and are reported at the end of the hour.